sensor_id;sensor_type;location;lat;lon;timestamp;P1;durP1;ratioP1;P2;durP2;ratioP2
44145;SDS011;29809;52.432;4.780;2023-05-10T00:00:45;2.38;;;2.17;;
44145;SDS011;29809;52.432;4.780;2023-05-10T00:03:11;3.50;;;2.70;;
44145;SDS011;29809;52.432;4.780;2023-05-10T00:05:36;3.13;;;2.83;;
44145;SDS011;29809;52.432;4.780;2023-05-10T00:08:01;3.05;;;2.50;;
44145;SDS011;29809;52.432;4.780;2023-05-10T00:10:27;2.60;;;2.40;;
44145;SDS011;29809;52.432;4.780;2023-05-10T00:12:52;3.45;;;2.53;;
44145;SDS011;29809;52.432;4.780;2023-05-10T00:15:17;2.53;;;2.33;;
44145;SDS011;29809;52.432;4.780;2023-05-10T00:17:42;3.00;;;2.80;;
44145;SDS011;29809;52.432;4.780;2023-05-10T00:20:08;2.75;;;2.45;;
44145;SDS011;29809;52.432;4.780;2023-05-10T00:22:33;3.13;;;2.83;;
44145;SDS011;29809;52.432;4.780;2023-05-10T00:24:58;3.17;;;2.88;;
44145;SDS011;29809;52.432;4.780;2023-05-10T00:27:24;3.60;;;2.70;;
44145;SDS011;29809;52.432;4.780;2023-05-10T00:29:49;2.78;;;2.58;;
44145;SDS011;29809;52.432;4.780;2023-05-10T00:32:14;3.35;;;2.85;;
44145;SDS011;29809;52.432;4.780;2023-05-10T00:34:40;5.85;;;3.10;;
44145;SDS011;29809;52.432;4.780;2023-05-10T00:37:05;2.60;;;2.40;;
44145;SDS011;29809;52.432;4.780;2023-05-10T00:39:30;3.67;;;3.10;;
44145;SDS011;29809;52.432;4.780;2023-05-10T00:41:56;3.75;;;3.35;;
44145;SDS011;29809;52.432;4.780;2023-05-10T00:44:21;4.13;;;3.10;;
44145;SDS011;29809;52.432;4.780;2023-05-10T00:46:46;3.72;;;3.42;;
44145;SDS011;29809;52.432;4.780;2023-05-10T00:49:12;3.28;;;3.03;;
44145;SDS011;29809;52.432;4.780;2023-05-10T00:51:37;3.50;;;3.20;;
44145;SDS011;29809;52.432;4.780;2023-05-10T00:54:03;3.00;;;2.75;;
44145;SDS011;29809;52.432;4.780;2023-05-10T00:56:28;5.03;;;3.10;;
44145;SDS011;29809;52.432;4.780;2023-05-10T00:58:54;3.85;;;3.10;;
44145;SDS011;29809;52.432;4.780;2023-05-10T01:01:20;3.90;;;3.15;;
44145;SDS011;29809;52.432;4.780;2023-05-10T01:03:45;3.53;;;3.22;;
44145;SDS011;29809;52.432;4.780;2023-05-10T01:06:11;3.72;;;3.28;;
44145;SDS011;29809;52.432;4.780;2023-05-10T01:08:37;5.80;;;3.45;;
44145;SDS011;29809;52.432;4.780;2023-05-10T01:11:02;3.85;;;2.90;;
44145;SDS011;29809;52.432;4.780;2023-05-10T01:15:52;3.42;;;3.08;;
44145;SDS011;29809;52.432;4.780;2023-05-10T01:18:18;3.63;;;3.17;;
44145;SDS011;29809;52.432;4.780;2023-05-10T01:20:44;3.28;;;2.97;;
44145;SDS011;29809;52.432;4.780;2023-05-10T01:38:51;4.75;;;4.25;;
44145;SDS011;29809;52.432;4.780;2023-05-10T01:44:02;4.25;;;3.78;;
44145;SDS011;29809;52.432;4.780;2023-05-10T01:46:35;5.47;;;3.83;;
44145;SDS011;29809;52.432;4.780;2023-05-10T01:49:11;3.70;;;3.40;;
44145;SDS011;29809;52.432;4.780;2023-05-10T01:51:39;4.10;;;3.38;;
44145;SDS011;29809;52.432;4.780;2023-05-10T01:54:06;4.70;;;3.55;;
44145;SDS011;29809;52.432;4.780;2023-05-10T01:56:33;3.92;;;3.58;;
44145;SDS011;29809;52.432;4.780;2023-05-10T01:58:59;3.85;;;3.55;;
44145;SDS011;29809;52.432;4.780;2023-05-10T02:01:26;3.85;;;3.55;;
44145;SDS011;29809;52.432;4.780;2023-05-10T02:03:51;3.97;;;3.63;;
44145;SDS011;29809;52.432;4.780;2023-05-10T02:06:18;4.57;;;3.72;;
44145;SDS011;29809;52.432;4.780;2023-05-10T02:08:45;6.80;;;3.60;;
44145;SDS011;29809;52.432;4.780;2023-05-10T02:11:12;4.57;;;3.90;;
44145;SDS011;29809;52.432;4.780;2023-05-10T02:13:38;4.40;;;4.00;;
44145;SDS011;29809;52.432;4.780;2023-05-10T02:16:04;4.30;;;3.90;;
44145;SDS011;29809;52.432;4.780;2023-05-10T02:18:30;4.55;;;4.10;;
44145;SDS011;29809;52.432;4.780;2023-05-10T02:20:56;4.85;;;3.97;;
44145;SDS011;29809;52.432;4.780;2023-05-10T02:23:22;3.78;;;3.47;;
44145;SDS011;29809;52.432;4.780;2023-05-10T02:25:48;4.10;;;3.67;;
44145;SDS011;29809;52.432;4.780;2023-05-10T02:28:14;6.05;;;4.13;;
44145;SDS011;29809;52.432;4.780;2023-05-10T02:30:40;4.90;;;4.20;;
44145;SDS011;29809;52.432;4.780;2023-05-10T02:33:06;4.40;;;4.03;;
44145;SDS011;29809;52.432;4.780;2023-05-10T02:35:32;5.43;;;4.20;;
44145;SDS011;29809;52.432;4.780;2023-05-10T02:38:00;5.47;;;4.65;;
44145;SDS011;29809;52.432;4.780;2023-05-10T02:40:26;5.45;;;4.85;;
44145;SDS011;29809;52.432;4.780;2023-05-10T02:42:52;5.18;;;4.68;;
44145;SDS011;29809;52.432;4.780;2023-05-10T02:45:20;5.97;;;5.38;;
44145;SDS011;29809;52.432;4.780;2023-05-10T02:47:48;6.57;;;4.90;;
44145;SDS011;29809;52.432;4.780;2023-05-10T02:50:13;7.35;;;5.97;;
44145;SDS011;29809;52.432;4.780;2023-05-10T02:52:39;7.70;;;5.80;;
44145;SDS011;29809;52.432;4.780;2023-05-10T02:55:06;8.32;;;6.20;;
44145;SDS011;29809;52.432;4.780;2023-05-10T02:57:34;7.57;;;6.78;;
44145;SDS011;29809;52.432;4.780;2023-05-10T03:00:00;9.90;;;6.82;;
44145;SDS011;29809;52.432;4.780;2023-05-10T03:02:26;9.60;;;6.43;;
44145;SDS011;29809;52.432;4.780;2023-05-10T03:04:51;10.35;;;6.90;;
44145;SDS011;29809;52.432;4.780;2023-05-10T03:07:16;10.68;;;7.45;;
44145;SDS011;29809;52.432;4.780;2023-05-10T03:09:44;9.88;;;7.43;;
44145;SDS011;29809;52.432;4.780;2023-05-10T03:17:04;9.30;;;6.47;;
44145;SDS011;29809;52.432;4.780;2023-05-10T03:19:36;8.68;;;6.93;;
44145;SDS011;29809;52.432;4.780;2023-05-10T03:22:05;11.30;;;6.88;;
44145;SDS011;29809;52.432;4.780;2023-05-10T03:24:31;9.43;;;7.13;;
44145;SDS011;29809;52.432;4.780;2023-05-10T03:26:58;8.82;;;6.32;;
44145;SDS011;29809;52.432;4.780;2023-05-10T03:29:27;8.55;;;6.32;;
44145;SDS011;29809;52.432;4.780;2023-05-10T03:31:53;10.77;;;6.75;;
44145;SDS011;29809;52.432;4.780;2023-05-10T03:34:23;7.97;;;6.85;;
44145;SDS011;29809;52.432;4.780;2023-05-10T03:36:48;8.90;;;7.03;;
44145;SDS011;29809;52.432;4.780;2023-05-10T03:39:13;9.30;;;6.78;;
44145;SDS011;29809;52.432;4.780;2023-05-10T03:41:38;8.02;;;6.40;;
44145;SDS011;29809;52.432;4.780;2023-05-10T03:44:04;9.63;;;6.97;;
44145;SDS011;29809;52.432;4.780;2023-05-10T03:46:29;8.45;;;6.72;;
44145;SDS011;29809;52.432;4.780;2023-05-10T03:48:54;9.30;;;6.60;;
44145;SDS011;29809;52.432;4.780;2023-05-10T03:51:20;11.30;;;7.30;;
44145;SDS011;29809;52.432;4.780;2023-05-10T03:53:45;6.93;;;6.20;;
44145;SDS011;29809;52.432;4.780;2023-05-10T03:56:11;7.97;;;6.38;;
44145;SDS011;29809;52.432;4.780;2023-05-10T03:58:36;8.77;;;6.57;;
44145;SDS011;29809;52.432;4.780;2023-05-10T04:01:02;8.02;;;6.38;;
44145;SDS011;29809;52.432;4.780;2023-05-10T04:03:27;8.27;;;6.22;;
44145;SDS011;29809;52.432;4.780;2023-05-10T04:05:59;8.38;;;5.93;;
44145;SDS011;29809;52.432;4.780;2023-05-10T04:08:25;8.20;;;6.80;;
44145;SDS011;29809;52.432;4.780;2023-05-10T04:10:50;9.00;;;6.80;;
44145;SDS011;29809;52.432;4.780;2023-05-10T04:13:15;11.40;;;6.60;;
44145;SDS011;29809;52.432;4.780;2023-05-10T04:15:41;8.57;;;6.82;;
44145;SDS011;29809;52.432;4.780;2023-05-10T04:18:06;6.57;;;5.88;;
44145;SDS011;29809;52.432;4.780;2023-05-10T04:20:32;9.32;;;7.28;;
44145;SDS011;29809;52.432;4.780;2023-05-10T04:22:57;7.25;;;6.28;;
44145;SDS011;29809;52.432;4.780;2023-05-10T04:25:25;9.25;;;6.28;;
44145;SDS011;29809;52.432;4.780;2023-05-10T04:27:51;7.40;;;6.43;;
44145;SDS011;29809;52.432;4.780;2023-05-10T04:30:16;10.65;;;7.20;;
44145;SDS011;29809;52.432;4.780;2023-05-10T04:32:41;9.32;;;6.35;;
44145;SDS011;29809;52.432;4.780;2023-05-10T04:35:07;9.00;;;6.65;;
44145;SDS011;29809;52.432;4.780;2023-05-10T04:37:32;10.27;;;7.80;;
44145;SDS011;29809;52.432;4.780;2023-05-10T04:39:57;8.40;;;6.60;;
44145;SDS011;29809;52.432;4.780;2023-05-10T04:42:24;7.65;;;6.57;;
44145;SDS011;29809;52.432;4.780;2023-05-10T04:44:50;8.48;;;6.13;;
44145;SDS011;29809;52.432;4.780;2023-05-10T04:47:17;7.28;;;6.45;;
44145;SDS011;29809;52.432;4.780;2023-05-10T04:49:42;10.65;;;6.22;;
44145;SDS011;29809;52.432;4.780;2023-05-10T04:52:07;13.27;;;6.75;;
44145;SDS011;29809;52.432;4.780;2023-05-10T04:54:33;8.32;;;6.65;;
44145;SDS011;29809;52.432;4.780;2023-05-10T04:56:58;8.43;;;6.35;;
44145;SDS011;29809;52.432;4.780;2023-05-10T04:59:23;7.30;;;6.18;;
44145;SDS011;29809;52.432;4.780;2023-05-10T05:01:48;8.52;;;6.85;;
44145;SDS011;29809;52.432;4.780;2023-05-10T05:04:14;7.07;;;6.38;;
44145;SDS011;29809;52.432;4.780;2023-05-10T05:06:39;7.38;;;5.90;;
44145;SDS011;29809;52.432;4.780;2023-05-10T05:09:05;7.70;;;6.03;;
44145;SDS011;29809;52.432;4.780;2023-05-10T05:11:30;7.25;;;6.55;;
44145;SDS011;29809;52.432;4.780;2023-05-10T05:13:55;9.02;;;6.22;;
44145;SDS011;29809;52.432;4.780;2023-05-10T05:16:21;48.05;;;13.80;;
44145;SDS011;29809;52.432;4.780;2023-05-10T05:18:46;85.40;;;20.80;;
44145;SDS011;29809;52.432;4.780;2023-05-10T05:21:15;86.65;;;27.63;;
44145;SDS011;29809;52.432;4.780;2023-05-10T05:23:41;96.75;;;27.65;;
44145;SDS011;29809;52.432;4.780;2023-05-10T05:26:06;82.22;;;26.70;;
44145;SDS011;29809;52.432;4.780;2023-05-10T05:28:31;70.70;;;24.73;;
44145;SDS011;29809;52.432;4.780;2023-05-10T05:30:58;58.60;;;24.17;;
44145;SDS011;29809;52.432;4.780;2023-05-10T05:33:24;53.97;;;22.73;;
44145;SDS011;29809;52.432;4.780;2023-05-10T05:35:49;57.35;;;20.65;;
44145;SDS011;29809;52.432;4.780;2023-05-10T05:38:16;49.40;;;20.20;;
44145;SDS011;29809;52.432;4.780;2023-05-10T05:40:41;55.58;;;20.65;;
44145;SDS011;29809;52.432;4.780;2023-05-10T05:43:06;51.20;;;17.75;;
44145;SDS011;29809;52.432;4.780;2023-05-10T05:45:31;38.08;;;17.40;;
44145;SDS011;29809;52.432;4.780;2023-05-10T05:47:56;36.65;;;17.20;;
44145;SDS011;29809;52.432;4.780;2023-05-10T05:50:22;31.38;;;15.18;;
44145;SDS011;29809;52.432;4.780;2023-05-10T05:52:47;30.83;;;15.48;;
44145;SDS011;29809;52.432;4.780;2023-05-10T05:55:12;38.20;;;15.00;;
44145;SDS011;29809;52.432;4.780;2023-05-10T05:57:38;29.50;;;13.68;;
44145;SDS011;29809;52.432;4.780;2023-05-10T06:00:03;23.70;;;13.25;;
44145;SDS011;29809;52.432;4.780;2023-05-10T06:02:29;28.58;;;13.10;;
44145;SDS011;29809;52.432;4.780;2023-05-10T06:04:54;23.27;;;12.35;;
44145;SDS011;29809;52.432;4.780;2023-05-10T06:07:19;24.17;;;12.32;;
44145;SDS011;29809;52.432;4.780;2023-05-10T06:09:45;27.33;;;12.32;;
44145;SDS011;29809;52.432;4.780;2023-05-10T06:12:10;20.77;;;11.00;;
44145;SDS011;29809;52.432;4.780;2023-05-10T06:14:36;25.27;;;10.23;;
44145;SDS011;29809;52.432;4.780;2023-05-10T06:17:01;16.92;;;10.75;;
44145;SDS011;29809;52.432;4.780;2023-05-10T06:19:28;19.92;;;10.18;;
44145;SDS011;29809;52.432;4.780;2023-05-10T06:21:54;18.90;;;10.07;;
44145;SDS011;29809;52.432;4.780;2023-05-10T06:24:19;21.98;;;9.50;;
44145;SDS011;29809;52.432;4.780;2023-05-10T06:26:46;25.27;;;9.77;;
44145;SDS011;29809;52.432;4.780;2023-05-10T06:29:11;19.80;;;8.77;;
44145;SDS011;29809;52.432;4.780;2023-05-10T06:31:37;12.35;;;7.78;;
44145;SDS011;29809;52.432;4.780;2023-05-10T06:34:02;14.10;;;9.05;;
44145;SDS011;29809;52.432;4.780;2023-05-10T06:36:27;12.93;;;8.38;;
44145;SDS011;29809;52.432;4.780;2023-05-10T06:38:55;14.07;;;8.57;;
44145;SDS011;29809;52.432;4.780;2023-05-10T06:41:21;10.68;;;8.38;;
44145;SDS011;29809;52.432;4.780;2023-05-10T06:43:46;10.90;;;8.15;;
44145;SDS011;29809;52.432;4.780;2023-05-10T06:46:11;10.63;;;7.80;;
44145;SDS011;29809;52.432;4.780;2023-05-10T06:48:36;9.95;;;7.43;;
44145;SDS011;29809;52.432;4.780;2023-05-10T06:51:02;11.00;;;7.38;;
44145;SDS011;29809;52.432;4.780;2023-05-10T06:53:27;9.30;;;7.55;;
44145;SDS011;29809;52.432;4.780;2023-05-10T06:55:55;9.35;;;6.68;;
44145;SDS011;29809;52.432;4.780;2023-05-10T06:58:24;13.00;;;8.15;;
44145;SDS011;29809;52.432;4.780;2023-05-10T07:00:49;8.70;;;7.00;;
44145;SDS011;29809;52.432;4.780;2023-05-10T07:03:15;10.52;;;7.63;;
44145;SDS011;29809;52.432;4.780;2023-05-10T07:05:40;10.55;;;8.00;;
44145;SDS011;29809;52.432;4.780;2023-05-10T07:08:06;9.98;;;7.03;;
44145;SDS011;29809;52.432;4.780;2023-05-10T07:10:31;8.82;;;7.35;;
44145;SDS011;29809;52.432;4.780;2023-05-10T07:12:57;9.20;;;7.63;;
44145;SDS011;29809;52.432;4.780;2023-05-10T07:15:22;10.73;;;7.50;;
44145;SDS011;29809;52.432;4.780;2023-05-10T07:17:48;7.78;;;6.97;;
44145;SDS011;29809;52.432;4.780;2023-05-10T07:20:13;8.30;;;6.97;;
44145;SDS011;29809;52.432;4.780;2023-05-10T07:22:38;7.15;;;6.38;;
44145;SDS011;29809;52.432;4.780;2023-05-10T07:25:04;8.73;;;7.07;;
44145;SDS011;29809;52.432;4.780;2023-05-10T07:27:30;8.80;;;6.70;;
44145;SDS011;29809;52.432;4.780;2023-05-10T07:29:55;8.48;;;6.22;;
44145;SDS011;29809;52.432;4.780;2023-05-10T07:32:21;7.65;;;6.05;;
44145;SDS011;29809;52.432;4.780;2023-05-10T07:34:47;8.38;;;5.75;;
44145;SDS011;29809;52.432;4.780;2023-05-10T07:37:12;7.93;;;5.78;;
44145;SDS011;29809;52.432;4.780;2023-05-10T07:39:37;6.30;;;5.45;;
44145;SDS011;29809;52.432;4.780;2023-05-10T07:42:02;6.28;;;5.07;;
44145;SDS011;29809;52.432;4.780;2023-05-10T07:44:28;7.00;;;5.70;;
44145;SDS011;29809;52.432;4.780;2023-05-10T07:46:53;7.85;;;5.25;;
44145;SDS011;29809;52.432;4.780;2023-05-10T07:49:18;6.50;;;5.05;;
44145;SDS011;29809;52.432;4.780;2023-05-10T07:51:43;5.43;;;4.90;;
44145;SDS011;29809;52.432;4.780;2023-05-10T07:54:09;5.72;;;4.80;;
44145;SDS011;29809;52.432;4.780;2023-05-10T07:56:34;7.32;;;5.15;;
44145;SDS011;29809;52.432;4.780;2023-05-10T07:59:00;5.57;;;4.50;;
44145;SDS011;29809;52.432;4.780;2023-05-10T08:01:26;5.25;;;4.60;;
44145;SDS011;29809;52.432;4.780;2023-05-10T08:03:51;5.05;;;4.65;;
44145;SDS011;29809;52.432;4.780;2023-05-10T08:06:18;5.78;;;4.80;;
44145;SDS011;29809;52.432;4.780;2023-05-10T08:08:43;5.13;;;4.63;;
44145;SDS011;29809;52.432;4.780;2023-05-10T08:11:14;4.63;;;4.10;;
44145;SDS011;29809;52.432;4.780;2023-05-10T08:13:39;6.80;;;4.45;;
44145;SDS011;29809;52.432;4.780;2023-05-10T08:16:04;4.85;;;4.40;;
44145;SDS011;29809;52.432;4.780;2023-05-10T08:18:31;4.30;;;3.90;;
44145;SDS011;29809;52.432;4.780;2023-05-10T08:20:56;4.43;;;4.03;;
44145;SDS011;29809;52.432;4.780;2023-05-10T08:23:21;8.32;;;4.47;;
44145;SDS011;29809;52.432;4.780;2023-05-10T08:25:47;4.63;;;4.22;;
44145;SDS011;29809;52.432;4.780;2023-05-10T08:28:12;4.63;;;3.97;;
44145;SDS011;29809;52.432;4.780;2023-05-10T08:30:37;7.57;;;4.13;;
44145;SDS011;29809;52.432;4.780;2023-05-10T08:33:03;5.88;;;3.97;;
44145;SDS011;29809;52.432;4.780;2023-05-10T08:35:28;4.15;;;3.75;;
44145;SDS011;29809;52.432;4.780;2023-05-10T08:37:53;4.18;;;3.78;;
44145;SDS011;29809;52.432;4.780;2023-05-10T08:40:19;5.40;;;3.53;;
44145;SDS011;29809;52.432;4.780;2023-05-10T08:42:49;7.88;;;3.58;;
44145;SDS011;29809;52.432;4.780;2023-05-10T08:45:16;5.45;;;3.85;;
44145;SDS011;29809;52.432;4.780;2023-05-10T08:47:42;3.40;;;3.10;;
44145;SDS011;29809;52.432;4.780;2023-05-10T08:50:07;4.10;;;3.78;;
44145;SDS011;29809;52.432;4.780;2023-05-10T08:52:33;3.65;;;3.10;;
44145;SDS011;29809;52.432;4.780;2023-05-10T08:55:04;4.28;;;3.88;;
44145;SDS011;29809;52.432;4.780;2023-05-10T08:57:29;5.22;;;3.30;;
44145;SDS011;29809;52.432;4.780;2023-05-10T08:59:54;3.50;;;3.20;;
44145;SDS011;29809;52.432;4.780;2023-05-10T09:02:19;3.60;;;3.10;;
44145;SDS011;29809;52.432;4.780;2023-05-10T09:04:45;3.92;;;3.45;;
44145;SDS011;29809;52.432;4.780;2023-05-10T09:07:11;4.35;;;3.22;;
44145;SDS011;29809;52.432;4.780;2023-05-10T09:09:37;3.60;;;3.30;;
44145;SDS011;29809;52.432;4.780;2023-05-10T09:12:02;3.35;;;3.03;;
44145;SDS011;29809;52.432;4.780;2023-05-10T09:14:28;4.13;;;3.72;;
44145;SDS011;29809;52.432;4.780;2023-05-10T09:16:53;4.57;;;3.55;;
44145;SDS011;29809;52.432;4.780;2023-05-10T09:19:20;3.90;;;2.95;;
44145;SDS011;29809;52.432;4.780;2023-05-10T09:21:45;3.25;;;2.95;;
44145;SDS011;29809;52.432;4.780;2023-05-10T09:24:11;3.33;;;3.00;;
44145;SDS011;29809;52.432;4.780;2023-05-10T09:26:45;6.55;;;3.63;;
44145;SDS011;29809;52.432;4.780;2023-05-10T09:29:11;3.72;;;3.22;;
44145;SDS011;29809;52.432;4.780;2023-05-10T09:31:43;4.30;;;3.20;;
44145;SDS011;29809;52.432;4.780;2023-05-10T09:34:09;3.20;;;2.50;;
44145;SDS011;29809;52.432;4.780;2023-05-10T09:36:35;3.35;;;2.78;;
44145;SDS011;29809;52.432;4.780;2023-05-10T09:39:00;4.07;;;2.60;;
44145;SDS011;29809;52.432;4.780;2023-05-10T09:41:25;4.07;;;2.70;;
44145;SDS011;29809;52.432;4.780;2023-05-10T09:43:55;2.97;;;2.50;;
44145;SDS011;29809;52.432;4.780;2023-05-10T09:46:22;4.00;;;2.50;;
44145;SDS011;29809;52.432;4.780;2023-05-10T09:48:51;7.30;;;2.63;;
44145;SDS011;29809;52.432;4.780;2023-05-10T09:51:22;3.38;;;2.75;;
44145;SDS011;29809;52.432;4.780;2023-05-10T09:53:48;2.97;;;2.60;;
44145;SDS011;29809;52.432;4.780;2023-05-10T09:56:32;3.75;;;2.67;;
44145;SDS011;29809;52.432;4.780;2023-05-10T09:59:03;3.42;;;3.10;;
44145;SDS011;29809;52.432;4.780;2023-05-10T10:01:28;4.10;;;2.67;;
44145;SDS011;29809;52.432;4.780;2023-05-10T10:03:54;3.25;;;2.88;;
44145;SDS011;29809;52.432;4.780;2023-05-10T10:06:19;3.50;;;2.45;;
44145;SDS011;29809;52.432;4.780;2023-05-10T10:08:45;3.58;;;2.80;;
44145;SDS011;29809;52.432;4.780;2023-05-10T10:11:10;2.78;;;2.13;;
44145;SDS011;29809;52.432;4.780;2023-05-10T10:13:35;3.00;;;2.70;;
44145;SDS011;29809;52.432;4.780;2023-05-10T10:16:01;3.92;;;2.95;;
44145;SDS011;29809;52.432;4.780;2023-05-10T10:18:27;3.30;;;2.75;;
44145;SDS011;29809;52.432;4.780;2023-05-10T10:20:53;3.38;;;3.08;;
44145;SDS011;29809;52.432;4.780;2023-05-10T10:23:19;5.65;;;3.58;;
44145;SDS011;29809;52.432;4.780;2023-05-10T10:25:44;4.32;;;3.33;;
44145;SDS011;29809;52.432;4.780;2023-05-10T10:28:18;4.00;;;3.30;;
44145;SDS011;29809;52.432;4.780;2023-05-10T10:30:47;4.40;;;4.00;;
44145;SDS011;29809;52.432;4.780;2023-05-10T10:35:39;5.18;;;3.60;;
44145;SDS011;29809;52.432;4.780;2023-05-10T10:38:05;6.07;;;5.00;;
44145;SDS011;29809;52.432;4.780;2023-05-10T10:40:33;6.47;;;4.63;;
44145;SDS011;29809;52.432;4.780;2023-05-10T10:43:21;7.00;;;4.80;;
44145;SDS011;29809;52.432;4.780;2023-05-10T10:45:43;8.02;;;5.28;;
44145;SDS011;29809;52.432;4.780;2023-05-10T10:48:21;7.30;;;5.65;;
44145;SDS011;29809;52.432;4.780;2023-05-10T10:50:47;7.63;;;6.05;;
44145;SDS011;29809;52.432;4.780;2023-05-10T10:53:12;8.05;;;6.53;;
44145;SDS011;29809;52.432;4.780;2023-05-10T10:55:47;11.20;;;6.25;;
44145;SDS011;29809;52.432;4.780;2023-05-10T10:58:28;8.18;;;6.00;;
44145;SDS011;29809;52.432;4.780;2023-05-10T11:01:08;8.65;;;6.32;;
44145;SDS011;29809;52.432;4.780;2023-05-10T11:03:34;7.85;;;6.63;;
44145;SDS011;29809;52.432;4.780;2023-05-10T11:06:00;8.48;;;6.18;;
44145;SDS011;29809;52.432;4.780;2023-05-10T11:13:17;8.75;;;7.22;;
44145;SDS011;29809;52.432;4.780;2023-05-10T11:15:51;10.30;;;6.97;;
44145;SDS011;29809;52.432;4.780;2023-05-10T11:18:21;6.93;;;6.18;;
44145;SDS011;29809;52.432;4.780;2023-05-10T11:21:08;9.90;;;7.80;;
44145;SDS011;29809;52.432;4.780;2023-05-10T11:26:09;9.60;;;7.22;;
44145;SDS011;29809;52.432;4.780;2023-05-10T11:28:45;8.88;;;6.70;;
44145;SDS011;29809;52.432;4.780;2023-05-10T11:31:14;8.13;;;6.00;;
44145;SDS011;29809;52.432;4.780;2023-05-10T11:33:44;8.93;;;6.65;;
44145;SDS011;29809;52.432;4.780;2023-05-10T11:36:19;8.95;;;6.97;;
44145;SDS011;29809;52.432;4.780;2023-05-10T11:38:45;7.47;;;6.13;;
44145;SDS011;29809;52.432;4.780;2023-05-10T11:41:11;7.13;;;5.88;;
44145;SDS011;29809;52.432;4.780;2023-05-10T11:43:40;7.90;;;6.18;;
44145;SDS011;29809;52.432;4.780;2023-05-10T11:46:06;9.02;;;6.63;;
44145;SDS011;29809;52.432;4.780;2023-05-10T11:48:31;9.10;;;6.15;;
44145;SDS011;29809;52.432;4.780;2023-05-10T11:50:57;6.78;;;5.57;;
44145;SDS011;29809;52.432;4.780;2023-05-10T11:53:23;9.27;;;6.10;;
44145;SDS011;29809;52.432;4.780;2023-05-10T11:55:48;8.48;;;5.68;;
44145;SDS011;29809;52.432;4.780;2023-05-10T11:58:13;9.40;;;6.75;;
44145;SDS011;29809;52.432;4.780;2023-05-10T12:00:38;11.18;;;7.15;;
44145;SDS011;29809;52.432;4.780;2023-05-10T12:03:04;9.10;;;7.03;;
44145;SDS011;29809;52.432;4.780;2023-05-10T12:05:31;8.15;;;6.38;;
44145;SDS011;29809;52.432;4.780;2023-05-10T12:08:10;7.60;;;6.60;;
44145;SDS011;29809;52.432;4.780;2023-05-10T12:10:35;9.32;;;6.22;;
44145;SDS011;29809;52.432;4.780;2023-05-10T12:13:01;10.65;;;6.97;;
44145;SDS011;29809;52.432;4.780;2023-05-10T12:15:26;7.63;;;5.75;;
44145;SDS011;29809;52.432;4.780;2023-05-10T12:17:53;7.55;;;5.65;;
44145;SDS011;29809;52.432;4.780;2023-05-10T12:20:22;7.93;;;6.03;;
44145;SDS011;29809;52.432;4.780;2023-05-10T12:22:51;6.38;;;5.47;;
44145;SDS011;29809;52.432;4.780;2023-05-10T12:25:20;5.53;;;5.03;;
44145;SDS011;29809;52.432;4.780;2023-05-10T12:27:52;8.32;;;5.47;;
44145;SDS011;29809;52.432;4.780;2023-05-10T12:30:24;5.82;;;5.15;;
44145;SDS011;29809;52.432;4.780;2023-05-10T12:32:49;5.90;;;5.22;;
44145;SDS011;29809;52.432;4.780;2023-05-10T12:35:15;5.25;;;4.60;;
44145;SDS011;29809;52.432;4.780;2023-05-10T12:37:41;7.70;;;5.10;;
44145;SDS011;29809;52.432;4.780;2023-05-10T12:40:07;5.25;;;4.32;;
44145;SDS011;29809;52.432;4.780;2023-05-10T12:42:33;5.47;;;4.72;;
44145;SDS011;29809;52.432;4.780;2023-05-10T12:44:59;5.40;;;4.88;;
44145;SDS011;29809;52.432;4.780;2023-05-10T12:47:24;4.43;;;4.07;;
44145;SDS011;29809;52.432;4.780;2023-05-10T12:49:49;7.45;;;4.80;;
44145;SDS011;29809;52.432;4.780;2023-05-10T12:52:16;6.72;;;4.32;;
44145;SDS011;29809;52.432;4.780;2023-05-10T12:54:41;5.07;;;4.57;;
44145;SDS011;29809;52.432;4.780;2023-05-10T12:57:06;4.65;;;4.10;;
44145;SDS011;29809;52.432;4.780;2023-05-10T12:59:31;6.82;;;3.67;;
44145;SDS011;29809;52.432;4.780;2023-05-10T13:01:57;5.10;;;4.60;;
44145;SDS011;29809;52.432;4.780;2023-05-10T13:04:22;6.70;;;4.55;;
44145;SDS011;29809;52.432;4.780;2023-05-10T13:06:47;4.72;;;4.30;;
44145;SDS011;29809;52.432;4.780;2023-05-10T13:09:13;6.80;;;4.60;;
44145;SDS011;29809;52.432;4.780;2023-05-10T13:11:38;5.40;;;4.70;;
44145;SDS011;29809;52.432;4.780;2023-05-10T13:14:03;5.75;;;4.50;;
44145;SDS011;29809;52.432;4.780;2023-05-10T13:16:28;6.10;;;5.07;;
44145;SDS011;29809;52.432;4.780;2023-05-10T13:18:54;5.25;;;4.40;;
44145;SDS011;29809;52.432;4.780;2023-05-10T13:21:19;5.70;;;5.15;;
44145;SDS011;29809;52.432;4.780;2023-05-10T13:23:45;6.88;;;5.20;;
44145;SDS011;29809;52.432;4.780;2023-05-10T13:26:11;6.85;;;4.78;;
44145;SDS011;29809;52.432;4.780;2023-05-10T13:28:36;6.00;;;5.20;;
44145;SDS011;29809;52.432;4.780;2023-05-10T13:31:03;6.32;;;4.70;;
44145;SDS011;29809;52.432;4.780;2023-05-10T13:33:28;7.93;;;4.65;;
44145;SDS011;29809;52.432;4.780;2023-05-10T13:35:54;8.82;;;5.90;;
44145;SDS011;29809;52.432;4.780;2023-05-10T13:38:19;6.03;;;5.38;;
44145;SDS011;29809;52.432;4.780;2023-05-10T13:40:44;9.20;;;5.38;;
44145;SDS011;29809;52.432;4.780;2023-05-10T13:43:09;8.18;;;4.68;;
44145;SDS011;29809;52.432;4.780;2023-05-10T13:45:35;6.57;;;5.18;;
44145;SDS011;29809;52.432;4.780;2023-05-10T13:48:00;6.55;;;4.88;;
44145;SDS011;29809;52.432;4.780;2023-05-10T13:50:25;5.35;;;4.82;;
44145;SDS011;29809;52.432;4.780;2023-05-10T13:52:51;6.82;;;4.45;;
44145;SDS011;29809;52.432;4.780;2023-05-10T13:55:17;7.43;;;5.55;;
44145;SDS011;29809;52.432;4.780;2023-05-10T13:57:42;6.47;;;4.30;;
44145;SDS011;29809;52.432;4.780;2023-05-10T14:00:08;12.77;;;4.68;;
44145;SDS011;29809;52.432;4.780;2023-05-10T14:02:33;10.55;;;5.15;;
44145;SDS011;29809;52.432;4.780;2023-05-10T14:04:58;7.95;;;5.28;;
44145;SDS011;29809;52.432;4.780;2023-05-10T14:07:24;9.43;;;5.00;;
44145;SDS011;29809;52.432;4.780;2023-05-10T14:09:49;7.72;;;5.78;;
44145;SDS011;29809;52.432;4.780;2023-05-10T14:12:14;7.80;;;5.15;;
44145;SDS011;29809;52.432;4.780;2023-05-10T14:14:40;8.43;;;5.47;;
44145;SDS011;29809;52.432;4.780;2023-05-10T14:17:05;8.27;;;6.25;;
44145;SDS011;29809;52.432;4.780;2023-05-10T14:19:30;7.50;;;5.25;;
44145;SDS011;29809;52.432;4.780;2023-05-10T14:21:57;9.45;;;5.22;;
44145;SDS011;29809;52.432;4.780;2023-05-10T14:24:22;8.20;;;5.30;;
44145;SDS011;29809;52.432;4.780;2023-05-10T14:26:47;7.85;;;5.55;;
44145;SDS011;29809;52.432;4.780;2023-05-10T14:29:13;6.55;;;5.60;;
44145;SDS011;29809;52.432;4.780;2023-05-10T14:31:38;6.22;;;5.22;;
44145;SDS011;29809;52.432;4.780;2023-05-10T14:34:03;5.70;;;4.95;;
44145;SDS011;29809;52.432;4.780;2023-05-10T14:36:29;7.75;;;5.97;;
44145;SDS011;29809;52.432;4.780;2023-05-10T14:38:54;6.32;;;4.97;;
44145;SDS011;29809;52.432;4.780;2023-05-10T14:41:19;6.78;;;5.03;;
44145;SDS011;29809;52.432;4.780;2023-05-10T14:43:44;6.28;;;5.30;;
44145;SDS011;29809;52.432;4.780;2023-05-10T14:46:10;5.57;;;4.53;;
44145;SDS011;29809;52.432;4.780;2023-05-10T14:48:35;5.75;;;4.65;;
44145;SDS011;29809;52.432;4.780;2023-05-10T14:51:01;7.18;;;5.03;;
44145;SDS011;29809;52.432;4.780;2023-05-10T14:53:26;5.97;;;4.47;;
44145;SDS011;29809;52.432;4.780;2023-05-10T14:55:51;6.53;;;4.15;;
44145;SDS011;29809;52.432;4.780;2023-05-10T14:58:17;5.65;;;4.18;;
44145;SDS011;29809;52.432;4.780;2023-05-10T15:00:42;5.10;;;4.60;;
44145;SDS011;29809;52.432;4.780;2023-05-10T15:03:08;4.82;;;4.20;;
44145;SDS011;29809;52.432;4.780;2023-05-10T15:05:33;5.25;;;4.28;;
44145;SDS011;29809;52.432;4.780;2023-05-10T15:07:59;3.78;;;3.22;;
44145;SDS011;29809;52.432;4.780;2023-05-10T15:10:24;4.97;;;4.00;;
44145;SDS011;29809;52.432;4.780;2023-05-10T15:12:50;4.47;;;3.42;;
44145;SDS011;29809;52.432;4.780;2023-05-10T15:15:15;4.10;;;3.53;;